Flight Track Log - Related Links

Times and Time Zones

All times are in EDT time to prevent confusion due to time zone crossing. See the GJS6314 flight status page for this flight to view local times or setup timezone preferences in your user account.


Time Position Orientation Groundspeed Altitude Reporting Facility
EDT Latitude Longitude Course Direction KTS MPH feet Rate Location/Type
Wed 04:40:37 PM 38.7333 -90.3333 90° East 154 177 1,400  Level Gateway (St. Louis) TRACON
Wed 04:41:37 PM 38.7333 -90.2667 90° East 208 239 3,500 2,093 Climbing Gateway (St. Louis) TRACON
Wed 04:42:03 PM 38.7267 -90.2350 105° East 225 259 4,400 2,795 Climbing Kansas City Center
Wed 04:43:05 PM 38.7306 -90.1444 87° East 249 287 7,600 3,097 Climbing Kansas City Center
Wed 04:44:07 PM 38.7414 -90.0431 82° East 279 321 10,800 2,371 Climbing Kansas City Center
Wed 04:45:09 PM 38.7522 -89.9294 83° East 316 364 12,500 1,839 Climbing Kansas City Center
Wed 04:46:11 PM 38.7644 -89.8000 83° East 355 409 14,600 2,274 Climbing Kansas City Center
Wed 04:47:13 PM 38.7803 -89.6344 83° East 388 447 17,200 2,274 Climbing Kansas City Center
Wed 04:48:15 PM 38.7944 -89.4906 83° East 404 465 19,300 1,935 Climbing Kansas City Center
Wed 04:49:17 PM 38.8142 -89.3317 81° East 419 482 21,200 1,839 Climbing Kansas City Center
Wed 04:50:19 PM 38.8347 -89.1786 80° East 434 499 23,100 1,742 Climbing Kansas City Center
Wed 04:51:21 PM 38.8531 -89.0236 81° East 440 506 24,800 1,500 Climbing Kansas City Center
Wed 04:52:23 PM 38.8761 -88.8772 79° East 451 519 26,200 1,403 Climbing Kansas City Center
Wed 04:53:25 PM 38.8950 -88.7164 81° East 456 525 27,700 1,452 Climbing Kansas City Center
Wed 04:54:27 PM 38.9156 -88.5411 81° East 459 528 29,200 1,210 Climbing Kansas City Center
Wed 04:55:29 PM 38.9492 -88.3789 75° East 466 536 30,200 1,161 Climbing Kansas City Center
Wed 04:56:31 PM 39.0058 -88.1833 69° East 479 551 31,600 1,179 Climbing Kansas City Center
Wed 04:57:26 PM 39.0397 -88.0553 71° East 480 552 32,500 1,220 Climbing Indianapolis Center
Wed 04:58:29 PM 39.0856 -87.8903 70° East 484 557 34,000 1,296 Climbing Indianapolis Center
Wed 04:59:31 PM 39.1303 -87.7278 70° East 483 556 35,200 1,161 Climbing Indianapolis Center
Wed 05:00:33 PM 39.1844 -87.5314 70° East 482 555 36,400 871 Climbing Indianapolis Center
Wed 05:01:35 PM 39.2292 -87.3658 71° East 485 558 37,000 290 Climbing Indianapolis Center
Wed 05:02:37 PM 39.2739 -87.2000 71° East 487 560 37,000  Level Indianapolis Center
Wed 05:03:39 PM 39.3178 -87.0308 71° East 493 567 37,000  Level Indianapolis Center
Wed 05:04:41 PM 39.3628 -86.8622 71° East 494 568 37,000  Level Indianapolis Center
Wed 05:05:43 PM 39.4081 -86.6939 71° East 494 568 37,000  Level Indianapolis Center
Wed 05:06:45 PM 39.4522 -86.5214 72° East 502 578 37,000  Level Indianapolis Center
Wed 05:07:47 PM 39.4967 -86.3517 71° East 497 572 37,000  Level Indianapolis Center
Wed 05:08:49 PM 39.5497 -86.1456 71° East 501 577 37,000  Level Indianapolis Center
Wed 05:09:51 PM 39.5942 -85.9747 71° East 499 574 37,000  Level Indianapolis Center
Wed 05:10:53 PM 39.6397 -85.8036 71° East 499 574 37,000  Level Indianapolis Center
Wed 05:11:55 PM 39.7011 -85.6431 64° Northeast 502 578 37,000  Level Indianapolis Center
Wed 05:12:57 PM 39.7622 -85.4789 64° Northeast 501 577 37,000  Level Indianapolis Center
Wed 05:13:59 PM 39.8244 -85.3133 64° Northeast 504 580 37,000  Level Indianapolis Center
Wed 05:15:02 PM 39.8961 -85.1206 64° Northeast 504 580 37,000  Level Indianapolis Center
Wed 05:16:04 PM 39.9578 -84.9542 64° Northeast 504 580 37,000 -48 Level Indianapolis Center
Wed 05:17:06 PM 40.0189 -84.7875 64° Northeast 503 579 36,900  Descending Indianapolis Center
Wed 05:18:08 PM 40.0800 -84.6203 64° Northeast 505 581 37,000 48 Climbing Indianapolis Center
Wed 05:19:10 PM 40.1411 -84.4533 64° Northeast 505 581 37,000  Level Indianapolis Center
Wed 05:20:12 PM 40.2022 -84.2847 65° Northeast 507 583 37,000  Level Indianapolis Center
Wed 05:21:14 PM 40.2619 -84.1178 65° Northeast 501 577 37,000  Level Indianapolis Center
Wed 05:22:16 PM 40.3283 -83.9528 62° Northeast 503 579 37,000  Level Indianapolis Center
Wed 05:23:18 PM 40.3992 -83.7917 60° Northeast 504 580 37,000  Level Indianapolis Center
Wed 05:24:20 PM 40.4814 -83.6061 60° Northeast 499 574 37,000  Level Indianapolis Center
Wed 05:25:22 PM 40.5489 -83.4514 60° Northeast 486 559 37,000  Level Indianapolis Center
Wed 05:26:24 PM 40.6181 -83.2956 60° Northeast 487 560 37,000  Level Indianapolis Center
Wed 05:27:26 PM 40.6689 -83.1439 66° East 494 568 37,000  Level Indianapolis Center
Wed 05:28:28 PM 40.6975 -82.9353 80° East 495 570 37,000  Level Indianapolis Center
Wed 05:29:30 PM 40.7208 -82.7564 80° East 492 566 37,000  Level Indianapolis Center
Wed 05:30:32 PM 40.7436 -82.5775 80° East 493 567 37,000  Level Indianapolis Center
Wed 05:31:34 PM 40.7669 -82.3975 80° East 494 568 37,000  Level Indianapolis Center
Wed 05:32:36 PM 40.7878 -82.2183 81° East 493 567 37,000  Level Indianapolis Center
Wed 05:33:38 PM 40.8100 -82.0383 81° East 496 571 37,000  Level Indianapolis Center
Wed 05:34:45 PM 40.8339 -81.8208 82° East 482 555 37,000  Level Cleveland Center
Wed 05:35:45 PM 40.8564 -81.6428 80° East 482 555 37,000  Level Cleveland Center
Wed 05:36:45 PM 40.8767 -81.4672 81° East 482 555 37,000  Level Cleveland Center
Wed 05:37:45 PM 40.8967 -81.2919 81° East 482 555 37,000  Level Cleveland Center
Wed 05:38:45 PM 40.9164 -81.1161 82° East 482 555 37,000  Level Cleveland Center
Wed 05:39:45 PM 40.9358 -80.9733 80° East 487 560 37,000  Level Cleveland Center
Wed 05:40:45 PM 40.9572 -80.7867 81° East 481 554 37,000  Level Cleveland Center
Wed 05:41:45 PM 40.9761 -80.6078 82° East 482 555 37,000  Level Cleveland Center
Wed 05:42:45 PM 40.9967 -80.4264 81° East 487 560 37,000  Level Cleveland Center
Wed 05:43:45 PM 41.0153 -80.2475 82° East 487 560 37,000  Level Cleveland Center
Wed 05:44:45 PM 41.0333 -80.0683 82° East 487 560 37,000  Level Cleveland Center
Wed 05:45:45 PM 41.0511 -79.8892 82° East 487 560 37,000  Level Cleveland Center
Wed 05:46:45 PM 41.0708 -79.7072 82° East 487 560 37,000  Level Cleveland Center
Wed 05:47:45 PM 41.0881 -79.5253 83° East 487 560 37,000  Level Cleveland Center
Wed 05:48:45 PM 41.1069 -79.3431 82° East 487 560 37,000  Level Cleveland Center
Wed 05:49:45 PM 41.1256 -79.1442 83° East 487 560 37,000  Level Cleveland Center
Wed 05:50:45 PM 41.1378 -78.9814 84° East 492 566 37,000  Level Cleveland Center
Wed 05:51:45 PM 41.1581 -78.7906 82° East 505 581 37,000  Level Cleveland Center
Wed 05:52:45 PM 41.1758 -78.6053 83° East 505 581 37,000 -700 Level Cleveland Center
Wed 05:53:45 PM 41.1911 -78.4197 84° East 505 581 35,600 -1,657 Descending Cleveland Center
Wed 05:54:30 PM 41.2056 -78.2644 83° East 507 583 34,100 -1,486 Descending New York Center
Wed 05:55:30 PM 41.2069 -78.0769 89° East 512 589 33,000 -550 Descending New York Center
Wed 05:56:30 PM 41.1847 -77.8925 99° East 512 589 33,000  Level New York Center
Wed 05:57:29 PM 41.1603 -77.7081 100° East 512 589 33,000  Level New York Center
Wed 05:58:29 PM 41.1358 -77.5181 100° East 512 589 33,000  Level New York Center
Wed 05:59:30 PM 41.1117 -77.3531 101° East 506 582 33,000 -1,059 Level New York Center
Wed 06:00:28 PM 41.0867 -77.1636 100° East 506 582 30,900 -2,370 Descending New York Center
Wed 06:01:29 PM 41.0633 -76.9769 99° East 512 589 28,300 -2,557 Descending New York Center
Wed 06:02:30 PM 41.0392 -76.7986 100° East 502 578 25,700 -2,571 Descending New York Center
Wed 06:03:28 PM 41.0122 -76.6311 102° East 486 559 23,200 -2,441 Descending New York Center
Wed 06:04:28 PM 40.9742 -76.4683 107° East 469 540 20,900 -2,231 Descending New York Center
Wed 06:05:29 PM 40.9364 -76.3031 107° East 438 504 18,700 -1,770 Descending New York Center
Wed 06:06:30 PM 40.9028 -76.1714 109° East 423 487 17,300 -1,462 Descending New York Center
Wed 06:07:28 PM 40.8694 -76.0314 107° East 413 475 15,800 -1,613 Descending New York Center
Wed 06:08:29 PM 40.8303 -75.8775 109° East 407 468 14,100 -1,328 Descending New York Center
Wed 06:09:30 PM 40.7967 -75.7408 108° East 400 460 13,100 -545 Descending New York Center
Wed 06:10:30 PM 40.7644 -75.6097 108° East 384 442 13,000 -51 Descending New York Center
Wed 06:11:28 PM 40.7306 -75.4731 108° East 384 442 13,000  Level New York Center
Wed 06:12:30 PM 40.7003 -75.3369 106° East 389 448 13,000 -344 Level New York Center
Wed 06:13:30 PM 40.6764 -75.2011 103° East 389 448 12,300 -1,068 Descending New York Center
Wed 06:14:28 PM 40.6281 -75.0994 122° Southeast 362 417 10,900 -1,160 Descending New York Center
Wed 06:15:29 PM 40.5672 -74.9947 127° Southeast 367 422 10,000 -446 Descending New York Center
Wed 06:16:29 PM 40.5317 -74.8806 112° Southeast 323 372 10,000  Level New York Center
Wed 06:17:04 PM 40.5167 -74.8167 107° East 309 356 10,000  Level New York TRACON
Wed 06:18:04 PM 40.4833 -74.7167 114° Southeast 309 356 10,000 -248 Level New York TRACON
Wed 06:19:05 PM 40.4500 -74.6000 111° Southeast 305 351 9,500 -793 Descending New York TRACON
Wed 06:20:05 PM 40.4167 -74.5000 114° Southeast 293 337 8,400 -789 Descending New York TRACON
Wed 06:20:59 PM 40.4000 -74.4167 105° East 282 325 8,000 -211 Descending New York TRACON
Wed 06:21:59 PM 40.4000 -74.3167 90° East 292 336 8,000  Level New York TRACON
Wed 06:22:59 PM 40.4333 -74.2167 66° East 290 334 8,000 -200 Level New York TRACON
Wed 06:23:59 PM 40.4833 -74.1667 37° Northeast 284 327 7,600 -850 Descending New York TRACON
Wed 06:24:59 PM 40.5500 -74.1000 37° Northeast 280 322 6,300 -1,440 Descending New York TRACON
Wed 06:26:04 PM 40.6333 -74.0500 24° Northeast 275 316 4,600 -1,200 Descending New York TRACON
Wed 06:27:04 PM 40.7000 -74.0333 11° North 264 304 3,800 -835 Descending New York TRACON
Wed 06:27:59 PM 40.7667 -74.0167 11° North 272 313 3,000 -417 Descending New York TRACON
Wed 06:28:59 PM 40.8333 -73.9667 30° Northeast 265 305 3,000  Level New York TRACON
Wed 06:29:59 PM 40.8833 -73.9167 37° Northeast 210 242 3,000  Level New York TRACON
Wed 06:30:59 PM 40.9167 -73.8833 37° Northeast 194 223 3,000 -252 Level New York TRACON
Wed 06:31:58 PM 40.9333 -73.8167 72° East 203 234 2,500 -500 Descending New York TRACON
Wed 06:32:59 PM 40.9000 -73.8000 159° South 178 205 2,000 -496 Descending New York TRACON
Wed 06:33:59 PM 40.8500 -73.8167 194° South 161 185 1,500 -600 Descending New York TRACON
Wed 06:34:59 PM 40.8167 -73.8500 217° Southwest 129 148 800 -684 Descending New York TRACON
Wed 06:35:53 PM 40.8000 -73.8667 217° Southwest 123 142 200 -667 Descending New York TRACON

Login

Don't have an account? Register now (free) for customized features, flight alerts, and more!